Time;durP1;ratioP1;P1;durP2;ratioP2;P2;SDS_P1;SDS_P2;PMS_P1;PMS_P2;Temp;Humidity;BMP_temperature;BMP_pressure;BME280_temperature;BME280_humidity;BME280_pressure;Samples;Min_cycle;Max_cycle;Signal;HPM_P1;HPM_P2
2021/10/28 00:13:42;;;;;;;2.87;2.37;;;;;;;6.53;75.88;99622.38;5111678;28;42555;-76
2021/10/28 00:16:14;;;;;;;6.57;3.20;;;;;;;6.52;75.77;99625.91;5094271;28;41119;-75
2021/10/28 00:18:44;;;;;;;2.53;2.30;;;;;;;6.50;75.78;99611.94;5096146;28;39138;-75
2021/10/28 00:21:12;;;;;;;4.97;2.80;;;;;;;6.48;75.66;99611.13;5111382;28;42619;-76
2021/10/28 00:23:46;;;;;;;3.27;2.73;;;;;;;6.44;75.99;99613.00;5112005;28;42684;-76
2021/10/28 00:26:15;;;;;;;2.00;1.80;;;;;;;6.44;75.60;99613.00;5112783;28;41960;-75
2021/10/28 00:28:42;;;;;;;2.60;2.27;;;;;;;6.43;75.85;99610.41;5113086;28;39775;-79
2021/10/28 00:31:10;;;;;;;2.77;2.17;;;;;;;6.40;75.63;99611.41;5112738;28;42496;-76
2021/10/28 00:33:38;;;;;;;2.47;1.80;;;;;;;6.37;75.69;99610.63;5112448;28;42753;-76
2021/10/28 00:36:07;;;;;;;3.20;2.40;;;;;;;6.34;75.59;99611.59;5111738;28;42211;-76
2021/10/28 00:38:35;;;;;;;3.43;2.53;;;;;;;6.31;75.70;99618.72;5112802;28;40691;-76
2021/10/28 00:41:06;;;;;;;1.90;1.60;;;;;;;6.25;75.50;99611.03;5094781;28;42060;-77
2021/10/28 00:43:37;;;;;;;3.47;2.20;;;;;;;6.24;75.60;99617.22;5111553;28;43722;-76
2021/10/28 00:46:05;;;;;;;5.00;3.30;;;;;;;6.20;75.47;99613.81;5111093;28;42609;-77
2021/10/28 00:48:33;;;;;;;5.40;3.30;;;;;;;6.17;75.43;99618.34;5094880;28;38810;-77
2021/10/28 00:51:06;;;;;;;1.97;1.70;;;;;;;6.08;75.76;99609.81;5112970;28;42709;-76
2021/10/28 00:53:34;;;;;;;2.57;2.20;;;;;;;6.09;75.52;99611.53;5112774;28;42577;-76
2021/10/28 00:56:03;;;;;;;3.23;2.57;;;;;;;6.07;75.79;99613.34;5095445;28;41226;-75
2021/10/28 00:58:32;;;;;;;3.13;1.90;;;;;;;6.05;75.76;99617.81;5110732;27;40297;-75
2021/10/28 01:01:03;;;;;;;4.33;2.53;;;;;;;6.03;75.91;99614.38;5112273;28;42578;-75
2021/10/28 01:03:31;;;;;;;4.07;2.40;;;;;;;5.95;75.71;99603.22;5111310;28;41921;-75
2021/10/28 01:05:59;;;;;;;3.33;2.60;;;;;;;6.05;75.84;99619.59;5110761;28;41224;-75
2021/10/28 01:08:27;;;;;;;3.57;2.67;;;;;;;5.99;75.93;99602.22;5111976;28;40916;-76
2021/10/28 01:10:56;;;;;;;3.53;2.40;;;;;;;5.93;76.15;99591.94;5094570;28;40669;-76
2021/10/28 01:13:25;;;;;;;3.13;2.23;;;;;;;6.02;76.23;99604.78;5112570;28;43294;-75
2021/10/28 01:15:55;;;;;;;2.37;1.93;;;;;;;6.02;76.13;99610.03;5112542;28;42201;-75
2021/10/28 01:18:24;;;;;;;3.27;2.93;;;;;;;6.02;76.33;99599.50;5111543;28;39630;-76
2021/10/28 01:20:55;;;;;;;2.83;2.37;;;;;;;6.03;76.30;99603.88;5110845;28;41689;-76
2021/10/28 10:06:27;;;;;;;8.80;4.87;;;;;;;8.05;95.06;99439.94;5106220;28;21078;-77
2021/10/28 10:08:55;;;;;;;10.63;5.20;;;;;;;8.58;95.03;99444.69;5105900;28;39986;-77
2021/10/28 10:11:27;;;;;;;12.77;6.03;;;;;;;9.06;91.26;99448.66;5104908;28;42239;-76
2021/10/28 10:13:58;;;;;;;10.27;5.20;;;;;;;9.45;87.98;99451.19;5088181;28;42908;-77
2021/10/28 10:16:26;;;;;;;11.57;5.47;;;;;;;9.71;85.55;99454.28;5088099;28;41110;-76
2021/10/28 10:18:54;;;;;;;11.10;5.20;;;;;;;9.95;83.67;99451.34;5106943;28;40516;-77
2021/10/28 10:21:33;;;;;;;6.60;4.10;;;;;;;10.04;82.52;99432.34;5083572;28;41919;-77
2021/10/28 10:24:19;;;;;;;8.60;4.83;;;;;;;10.27;81.24;99450.56;5068119;28;41463;-76
2021/10/28 12:28:28;;;;;;;8.77;5.33;;;;;;;12.41;69.70;99341.97;5041300;28;41805;-77
2021/10/28 12:45:35;;;;;;;7.97;4.77;;;;;;;12.63;68.58;99328.19;5071682;28;41299;-77
2021/10/28 12:50:58;;;;;;;7.70;4.80;;;;;;;12.68;69.08;99322.59;5085040;28;41498;-76
2021/10/28 12:53:44;;;;;;;7.97;5.07;;;;;;;12.70;68.94;99323.34;5102547;28;43816;-76
2021/10/28 12:56:37;;;;;;;7.63;4.47;;;;;;;12.74;68.80;99323.03;5086350;28;41288;-76
2021/10/28 13:38:25;;;;;;;7.03;4.77;;;;;;;13.29;66.66;99267.16;5048145;28;43358;-77
2021/10/28 13:49:12;;;;;;;7.00;4.00;;;;;;;13.54;66.37;99266.34;5068262;28;42895;-77
2021/10/28 13:51:47;;;;;;;7.00;5.03;;;;;;;13.56;65.69;99266.25;5068364;28;42180;-76
2021/10/28 14:00:24;;;;;;;8.50;5.67;;;;;;;13.49;65.88;99251.66;5064375;28;42621;-77
2021/10/28 14:23:06;;;;;;;7.63;4.57;;;;;;;13.36;65.74;99245.44;4992375;28;43714;-76
2021/10/28 14:37:04;;;;;;;9.87;5.80;;;;;;;13.10;65.64;99224.13;5071104;28;41873;-76
2021/10/28 14:58:32;;;;;;;9.77;5.90;;;;;;;13.11;65.85;99247.06;5051102;28;39016;-76
2021/10/28 15:02:12;;;;;;;10.53;6.03;;;;;;;12.78;66.85;99222.72;5071926;28;38865;-77
2021/10/28 15:29:32;;;;;;;8.77;4.37;;;;;;;12.63;67.48;99218.41;5051259;28;41975;-76
2021/10/28 15:37:39;;;;;;;12.50;6.67;;;;;;;12.56;67.88;99210.84;5072697;28;40420;-76
2021/10/28 15:40:10;;;;;;;7.50;4.23;;;;;;;12.54;67.70;99204.78;5090429;28;42800;-77
2021/10/28 15:43:10;;;;;;;8.23;4.83;;;;;;;12.53;67.60;99202.22;5070417;28;41350;-76
2021/10/28 15:59:59;;;;;;;7.30;5.03;;;;;;;12.36;67.79;99197.16;5069884;28;40902;-76
2021/10/28 16:21:52;;;;;;;6.93;4.17;;;;;;;11.91;68.81;99166.41;5064201;28;41373;-80
2021/10/28 16:24:20;;;;;;;6.60;4.23;;;;;;;11.90;68.80;99167.34;5072032;28;41401;-78
2021/10/28 16:26:48;;;;;;;7.13;4.20;;;;;;;11.76;68.84;99160.25;5072739;28;41086;-78
2021/10/28 16:29:16;;;;;;;8.93;4.57;;;;;;;11.79;68.88;99174.19;5088871;28;40023;-78
2021/10/28 16:31:45;;;;;;;7.57;4.57;;;;;;;11.73;69.22;99171.03;5090146;28;41780;-78
2021/10/28 16:34:14;;;;;;;9.90;5.30;;;;;;;11.65;69.20;99170.63;5088301;28;43806;-80
2021/10/28 16:36:42;;;;;;;9.80;5.47;;;;;;;11.55;69.47;99180.97;5089412;28;42039;-79
2021/10/28 16:39:11;;;;;;;10.57;6.53;;;;;;;11.48;69.54;99184.97;5088192;28;39939;-77
2021/10/28 16:41:41;;;;;;;11.70;7.00;;;;;;;11.46;69.52;99181.53;5088588;28;41878;-77
2021/10/28 16:44:09;;;;;;;7.57;5.23;;;;;;;11.41;69.66;99173.00;5072002;28;41743;-78
2021/10/28 16:46:38;;;;;;;12.03;6.17;;;;;;;11.45;69.96;99170.06;5073330;28;42400;-77
